This is the latest recevied weather packets stored in our database for station/object G6FCI. If no packets are shown the sender has not sent any weather packets the latest 10 day(s).
| Time | Temp. | Humidity | Pressure | Rain* | Wind** | Luminosity | Snow |
|---|---|---|---|---|---|---|---|
| 1777207524 | 18.89° C | 80% | 1023.8 hPa | 0 mm | - | - | - |
| 1777206963 | 18.33° C | 79% | 1024 hPa | 0 mm | - | - | - |
| 1777205343 | 17.78° C | 81% | 1023.9 hPa | 0 mm | - | - | - |
| 1777204443 | 17.22° C | 76% | 1024.1 hPa | 0 mm | - | - | - |
| 1777200303 | 13.33° C | 69% | 1024 hPa | 0 mm | - | - | - |
| 1777197603 | 11.11° C | 69% | 1024.3 hPa | 0 mm | - | - | - |
| 1777195645 | 11.11° C | 69% | 1024.3 hPa | 0 mm | - | - | - |
| 1777189503 | 10° C | 66% | 1024.2 hPa | 0 mm | - | - | - |
| 1777188423 | 8.89° C | 67% | 1024.1 hPa | 0 mm | - | - | - |
| 1777187343 | 8.33° C | 68% | 1023.9 hPa | 0 mm | - | - | - |
| 1777186803 | 7.78° C | 68% | 1023.9 hPa | 0 mm | - | - | - |
| 1777186443 | 7.78° C | 68% | 1023.9 hPa | 0 mm | - | - | - |
| 1777185363 | 7.78° C | 69% | 1023.9 hPa | 0 mm | - | - | - |
| 1777181763 | 7.22° C | 69% | 1023.5 hPa | 0 mm | - | - | - |
| 1777181223 | 7.22° C | 69% | 1023.5 hPa | 0 mm | - | - | - |
| 1777177623 | 7.22° C | 70% | 1023.3 hPa | 0 mm | - | - | - |
| 1777176544 | 7.22° C | 70% | 1023.3 hPa | 0 mm | - | - | - |
| 1777173483 | 7.22° C | 69% | 1023.2 hPa | 0 mm | - | - | - |
| 1777169343 | 7.78° C | 68% | 1023.4 hPa | 0 mm | - | - | - |
| 1777168443 | 7.22° C | 70% | 1023.3 hPa | 0 mm | - | - | - |
| 1777167363 | 7.22° C | 70% | 1023.3 hPa | 0 mm | - | - | - |
| 1777161603 | 8.33° C | 71% | 1023.1 hPa | 0 mm | - | - | - |
| 1777159083 | 8.89° C | 74% | 1023 hPa | 0 mm | - | - | - |
| 1777148823 | 12.22° C | 85% | 1022.2 hPa | 0 mm | - | - | - |
| 1777148283 | 12.78° C | 81% | 1022.2 hPa | 0 mm | - | - | - |
* Rain latest hour (hover to see other rain measurements)
** Current wind speed in m/s (hover to see current wind gust speed)